• Join FlightAware (Why Join?)
  • Login
  • US Flag 
11:53AM EDT


 

Airport Tracker/Info


-or-


 

Live Flight TrackerFlight Track Log ✈ N531RQ ✈ 18-Apr-2013 ✈ CYYC - KGRB

Flight Track Log - Related Links

Times and Time Zones

All times are in EDT time to prevent confusion due to time zone crossing. See the N531RQ flight status page for this flight to view local times or setup timezone preferences in your user account.

Time Position Orientation Groundspeed Altitude Reporting Facility
EDT Latitude Longitude Course Direction KTS MPH feet Rate Location/Type
08:24PM 51.1000 -114.0333 115° Southeast 160 184 4,800  Level Edmonton Center
08:25PM 51.1500 -114.0500 348° North 220 253 7,900 3,000 Climbing Edmonton Center
08:26PM 51.1833 -113.9667 57° Northeast 270 311 10,900 3,360 Climbing Edmonton Center
08:27PM 51.1167 -113.8833 142° Southeast 290 334 14,700 3,480 Climbing Edmonton Center
08:28PM 51.0500 -113.7500 128° Southeast 320 368 17,900 3,000 Climbing Edmonton Center
08:29PM 51.0167 -113.6333 114° Southeast 350 403 20,700 2,760 Climbing Edmonton Center
08:30PM 50.7823 -113.0661 115° Southeast  Level FlightAware Approximate
08:30PM 50.9667 -113.4667 115° Southeast 370 426 23,500  Level Edmonton Center
08:31PM 50.9167 -113.3500 124° Southeast 370 426 26,100 2,520 Climbing Edmonton Center
08:32PM 50.8667 -113.2000 118° Southeast 380 437 28,600 2,400 Climbing Edmonton Center
08:33PM 50.8000 -113.0333 122° Southeast 380 437 30,900 2,040 Climbing Edmonton Center
08:34PM 50.7500 -112.9000 121° Southeast 390 449 32,700 1,620 Climbing Edmonton Center
08:35PM 50.6833 -112.7500 125° Southeast 410 472 34,200 1,500 Climbing Edmonton Center
08:36PM 50.6167 -112.5833 122° Southeast 420 483 35,700 1,500 Climbing Edmonton Center
08:37PM 50.5667 -112.4000 113° Southeast 430 495 37,200 1,440 Climbing Edmonton Center
08:38PM 50.5000 -112.2667 128° Southeast 430 495 38,600 900 Climbing Edmonton Center
08:39PM 50.4333 -112.0833 120° Southeast 430 495 39,000 180 Climbing Edmonton Center
08:40PM 50.3833 -111.9167 115° Southeast 450 518 39,000  Level Edmonton Center
08:41PM 50.3000 -111.7500 128° Southeast 460 529 39,000  Level Edmonton Center
08:42PM 50.2333 -111.5833 122° Southeast 470 541 39,000  Level Edmonton Center
08:43PM 50.1667 -111.4167 122° Southeast 470 541 39,000  Level Edmonton Center
08:44PM 50.1000 -111.2167 117° Southeast 470 541 39,000  Level Edmonton Center
08:45PM 50.0167 -111.0500 128° Southeast 480 552 39,000  Level Edmonton Center
08:46PM 49.9500 -110.8667 119° Southeast 480 552 39,000  Level Edmonton Center
08:47PM 49.9333 -110.6667 97° East 470 541 39,000  Level Edmonton Center
08:48PM 49.9000 -110.4667 104° East 460 529 39,000  Level Edmonton Center
08:49PM 49.8833 -110.2667 97° East 460 529 39,000  Level Edmonton Center
08:50PM 49.8500 -110.0667 104° East 460 529 39,000  Level Edmonton Center
08:51PM 49.8500 -109.8833 90° East 460 529 39,000  Level Edmonton Center
08:52PM 49.8167 -109.6833 104° East 460 529 39,000  Level Edmonton Center
08:53PM 49.8167 -109.5833 90° East 460 529 39,000  Level Winnipeg Center
08:54PM 49.7833 -109.3833 104° East 460 529 39,000  Level Winnipeg Center
08:54PM 49.7667 -109.3000 107° East 460 529 39,000  Level Edmonton Center
08:55PM 49.7500 -109.0833 97° East 460 529 39,000  Level Edmonton Center
08:56PM 49.7500 -108.9833 90° East 460 529 39,000  Level Winnipeg Center
08:57PM 49.7167 -108.8000 106° East 460 529 39,000  Level Winnipeg Center
08:58PM 49.7000 -108.6167 98° East 460 529 39,000  Level Winnipeg Center
08:59PM 49.6667 -108.4167 104° East 460 529 39,000  Level Winnipeg Center
08:59PM 49.6500 -108.3167 104° East 460 529 39,000  Level Edmonton Center
09:00PM 49.6333 -108.2000 102° East 460 529 39,000  Level Winnipeg Center
09:01PM 49.6333 -108.0167 90° East 460 529 39,000  Level Winnipeg Center
09:02PM 49.6000 -107.8000 103° East 470 541 39,000  Level Winnipeg Center
09:03PM 49.5833 -107.6167 98° East 470 541 39,000  Level Winnipeg Center
09:04PM 49.5500 -107.4333 106° East 470 541 39,000  Level Winnipeg Center
09:05PM 49.5333 -107.2500 98° East 470 541 39,000  Level Winnipeg Center
09:06PM 49.5000 -107.0500 104° East 460 529 39,000  Level Winnipeg Center
09:07PM 49.4667 -106.8500 104° East 460 529 39,000  Level Winnipeg Center
09:08PM 49.4500 -106.6500 97° East 460 529 39,000  Level Winnipeg Center
09:09PM 49.4167 -106.4667 106° East 460 529 39,000  Level Winnipeg Center
09:10PM 49.4000 -106.2667 97° East 460 529 39,000  Level Winnipeg Center
09:11PM 49.3667 -106.0667 104° East 460 529 39,000  Level Winnipeg Center
09:12PM 49.3500 -105.8833 98° East 460 529 39,000  Level Winnipeg Center
09:13PM 49.3167 -105.7000 106° East 460 529 39,000  Level Winnipeg Center
09:14PM 49.2833 -105.5000 104° East 460 529 39,000  Level Winnipeg Center
09:15PM 49.2500 -105.3000 104° East 470 541 39,000  Level Winnipeg Center
09:16PM 49.2167 -105.1167 105° East 470 541 39,000  Level Winnipeg Center
09:17PM 49.2000 -104.9333 98° East 470 541 39,000  Level Winnipeg Center
09:18PM 49.1667 -104.7500 105° East 460 529 39,000  Level Winnipeg Center
09:19PM 49.1333 -104.5333 103° East 460 529 39,000  Level Winnipeg Center
09:20PM 49.1000 -104.3500 105° East 450 518 39,000  Level Winnipeg Center
09:21PM 49.1167 -104.2736 72° East 460 529 39,000  Level Salt Lake Center
09:22PM 49.0806 -104.0486 104° East 458 527 39,000  Level Salt Lake Center
09:22PM 49.0500 -103.9833 126° Southeast 460 529 39,000  Level Winnipeg Center
09:23PM 49.0167 -103.7833 104° East 460 529 39,000  Level Winnipeg Center
09:24PM 48.9833 -103.6000 105° East 450 518 39,000  Level Winnipeg Center
09:25PM 48.9667 -103.4167 98° East 450 518 39,000  Level Winnipeg Center
09:26PM 48.9167 -103.2333 112° Southeast 450 518 39,000  Level Winnipeg Center
09:27PM 48.9000 -103.0500 98° East 450 518 39,000  Level Winnipeg Center
09:28PM 48.8500 -102.8667 112° Southeast 450 518 39,000  Level Winnipeg Center
09:29PM 48.8653 -102.7819 75° East 455 524 39,000  Level Minneapolis Center
09:30PM 48.8314 -102.5942 105° East 460 529 39,000  Level Minneapolis Center
09:30PM 48.8000 -102.4833 113° Southeast 450 518 39,000  Level Winnipeg Center
09:31PM 48.7667 -102.3000 105° East 450 518 39,000  Level Winnipeg Center
09:32PM 48.7333 -102.1167 105° East 450 518 39,000  Level Winnipeg Center
09:33PM 48.7000 -101.9333 105° East 450 518 39,000  Level Winnipeg Center
09:34PM 48.6919 -101.8228 96° East 453 521 39,000  Level Minneapolis Center
09:35PM 48.6575 -101.6403 106° East 452 520 39,000  Level Minneapolis Center
09:36PM 48.6167 -101.4614 109° East 451 519 39,000  Level Minneapolis Center
09:37PM 48.5722 -101.2806 110° East 456 525 39,000  Level Minneapolis Center
09:38PM 48.5272 -101.0883 109° East 458 527 39,000  Level Minneapolis Center
09:39PM 48.4839 -100.9078 110° East 458 527 39,000  Level Minneapolis Center
09:40PM 48.4417 -100.7264 109° East 460 529 39,000  Level Minneapolis Center
09:41PM 48.3983 -100.5475 110° East 457 526 39,000  Level Minneapolis Center
09:42PM 48.3461 -100.3336 110° East 456 525 39,000  Level Minneapolis Center
09:43PM 48.3022 -100.1550 110° East 456 525 39,000  Level Minneapolis Center
09:44PM 48.2594 -99.9781 110° East 453 521 39,000  Level Minneapolis Center
09:45PM 48.2156 -99.8017 110° East 453 521 39,000  Level Minneapolis Center
09:46PM 48.1733 -99.6261 110° East 451 519 39,000  Level Minneapolis Center
09:47PM 48.1292 -99.4531 111° Southeast 447 514 39,000  Level Minneapolis Center
09:48PM 48.0869 -99.2767 110° East 449 517 39,000  Level Minneapolis Center
09:49PM 48.0333 -99.0686 111° Southeast 450 518 39,000  Level Minneapolis Center
09:50PM 47.9875 -98.8961 112° Southeast 449 517 39,000  Level Minneapolis Center
09:51PM 47.9419 -98.7261 112° Southeast 446 513 39,000  Level Minneapolis Center
09:52PM 47.8972 -98.5531 111° Southeast 446 513 39,000  Level Minneapolis Center
09:53PM 47.8517 -98.3808 111° Southeast 447 514 39,000  Level Minneapolis Center
09:54PM 47.8050 -98.2089 112° Southeast 447 514 39,000  Level Minneapolis Center
09:56PM 47.7589 -98.0367 112° Southeast 447 514 39,000  Level Minneapolis Center
09:57PM 47.6925 -97.7947 112° Southeast 445 512 39,000  Level Minneapolis Center
09:58PM 47.6461 -97.6219 112° Southeast 444 511 39,000  Level Minneapolis Center
09:59PM 47.6003 -97.4519 112° Southeast 443 510 39,000  Level Minneapolis Center
10:00PM 47.5539 -97.2847 112° Southeast 439 505 39,000  Level Minneapolis Center
10:01PM 47.5081 -97.1158 112° Southeast 440 506 39,000  Level Minneapolis Center
10:02PM 47.4611 -96.9517 113° Southeast 436 502 39,000  Level Minneapolis Center
10:03PM 47.4147 -96.7864 112° Southeast 436 502 39,000  Level Minneapolis Center
10:04PM 47.3669 -96.6225 113° Southeast 435 501 39,000  Level Minneapolis Center
10:05PM 47.3214 -96.4583 112° Southeast 433 498 39,000  Level Minneapolis Center
10:06PM 47.2639 -96.2631 113° Southeast 434 499 39,000  Level Minneapolis Center
10:07PM 47.2164 -96.1003 113° Southeast 433 498 39,000  Level Minneapolis Center
10:08PM 47.1683 -95.9375 113° Southeast 434 499 39,000  Level Minneapolis Center
10:09PM 47.1192 -95.7686 113° Southeast 435 501 39,000  Level Minneapolis Center
10:10PM 47.0714 -95.6061 113° Southeast 436 502 39,000  Level Minneapolis Center
10:11PM 47.0231 -95.4447 114° Southeast 435 501 39,000  Level Minneapolis Center
10:12PM 46.9747 -95.2847 114° Southeast 433 498 39,000  Level Minneapolis Center
10:13PM 46.9158 -95.0919 114° Southeast 434 499 39,000  Level Minneapolis Center
10:14PM 46.8669 -94.9325 114° Southeast 433 498 39,000  Level Minneapolis Center
10:15PM 46.8186 -94.7728 114° Southeast 433 498 39,000  Level Minneapolis Center
10:16PM 46.7686 -94.6136 115° Southeast 433 498 39,000  Level Minneapolis Center
10:17PM 46.7197 -94.4564 114° Southeast 430 495 39,000  Level Minneapolis Center
10:18PM 46.6703 -94.2983 114° Southeast 430 495 39,000  Level Minneapolis Center
10:19PM 46.6106 -94.1094 115° Southeast 431 496 39,000  Level Minneapolis Center
10:21PM 46.5503 -93.9208 115° Southeast 431 496 39,000  Level Minneapolis Center
10:22PM 46.5006 -93.7658 115° Southeast 429 494 39,000  Level Minneapolis Center
10:23PM 46.4494 -93.6083 115° Southeast 432 497 39,000  Level Minneapolis Center
10:24PM 46.3994 -93.4525 115° Southeast 432 497 39,000  Level Minneapolis Center
10:25PM 46.3489 -93.2986 115° Southeast 430 495 39,000  Level Minneapolis Center
10:26PM 46.2981 -93.1447 116° Southeast 429 494 39,000  Level Minneapolis Center
10:27PM 46.2358 -92.9606 116° Southeast 427 491 39,000  Level Minneapolis Center
10:28PM 46.1856 -92.8050 115° Southeast 426 490 39,000  Level Minneapolis Center
10:29PM 46.1347 -92.6506 115° Southeast 427 491 39,000  Level Minneapolis Center
10:30PM 46.0819 -92.4986 117° Southeast 425 489 39,000  Level Minneapolis Center
10:31PM 46.0311 -92.3450 115° Southeast 426 490 39,000  Level Minneapolis Center
10:32PM 45.9797 -92.1925 116° Southeast 425 489 39,000  Level Minneapolis Center
10:33PM 45.9275 -92.0425 117° Southeast 422 486 39,000  Level Minneapolis Center
10:34PM 45.8669 -91.8611 116° Southeast 421 484 39,000  Level Minneapolis Center
10:35PM 45.8144 -91.7117 117° Southeast 421 484 39,000  Level Minneapolis Center
10:36PM 45.7656 -91.5722 117° Southeast 427 491 39,000  Level Minneapolis Center
10:37PM 45.7131 -91.4197 116° Southeast 428 493 39,000  Level Minneapolis Center
10:38PM 45.6589 -91.2689 117° Southeast 428 493 39,000  Level Minneapolis Center
10:39PM 45.5950 -91.0869 117° Southeast 428 493 39,000  Level Minneapolis Center
10:40PM 45.5403 -90.9364 117° Southeast 429 494 39,000  Level Minneapolis Center
10:41PM 45.4864 -90.7853 117° Southeast 429 494 39,000 -60 Level Minneapolis Center
10:42PM 45.4325 -90.6350 117° Southeast 428 493 38,900 -900 Descending Minneapolis Center
10:43PM 45.3811 -90.4933 117° Southeast 410 472 37,200 -1,740 Descending Minneapolis Center
10:44PM 45.3342 -90.3636 117° Southeast 381 438 35,400 -1,920 Descending Minneapolis Center
10:45PM 45.2783 -90.2119 118° Southeast 365 420 33,300 -1,920 Descending Minneapolis Center
10:46PM 45.2311 -90.0867 118° Southeast 362 417 31,500 -1,740 Descending Minneapolis Center
10:47PM 45.1839 -89.9564 117° Southeast 368 423 29,800 -1,800 Descending Minneapolis Center
10:48PM 45.1344 -89.8253 118° Southeast 375 432 27,900 -2,040 Descending Minneapolis Center
10:49PM 45.0825 -89.6847 118° Southeast 383 441 25,700 -2,160 Descending Minneapolis Center
10:50PM 45.0306 -89.5458 118° Southeast 396 456 23,500 -2,040 Descending Minneapolis Center
10:51PM 44.9858 -89.4267 118° Southeast 406 467 21,600 -2,100 Descending Minneapolis Center
10:52PM 44.9342 -89.2889 118° Southeast 399 459 19,200 -2,880 Descending Minneapolis Center
10:53PM 44.8817 -89.1525 118° Southeast 336 387 15,800 -2,820 Descending Minneapolis Center
10:54PM 44.8342 -89.0297 119° Southeast 309 356 13,400 -2,160 Descending Minneapolis Center
10:55PM 44.7950 -88.9261 118° Southeast 300 345 11,400 -1,920 Descending Minneapolis Center
10:56PM 44.7564 -88.8261 119° Southeast 293 337 9,500 -1,920 Descending Minneapolis Center
10:57PM 44.7214 -88.7331 118° Southeast 273 314 7,500 -1,980 Descending Minneapolis Center
10:58PM 44.6864 -88.6428 119° Southeast 265 305 5,500 -1,740 Descending Minneapolis Center
11:00PM 44.6461 -88.5619 125° Southeast 260 299 4,000 -780 Descending Minneapolis Center
11:01PM 44.5931 -88.5047 142° Southeast 248 285 4,000  Level Minneapolis Center
11:02PM 44.5406 -88.4406 139° Southeast 246 283 4,000 -420 Level Minneapolis Center
11:03PM 44.4931 -88.3797 138° Southeast 241 277 3,200 -780 Descending Minneapolis Center
11:04PM 44.4450 -88.3178 137° Southeast 220 253 2,500 -360 Descending Minneapolis Center
11:05PM 44.4342 -88.2636 106° East 190 219 2,500 -120 Level Minneapolis Center
11:06PM 44.4519 -88.1994 69° East 196 226 2,300 -240 Descending Minneapolis Center
11:08PM 44.4846 -88.1297 109° East  Level Estimated